createdAt,value
2018-12-10T00:01:20.342Z,7.80
2018-12-10T00:04:45.023Z,7.95
2018-12-10T00:08:09.796Z,7.73
2018-12-10T00:11:34.610Z,7.50
2018-12-10T00:14:59.337Z,7.70
2018-12-10T00:18:24.085Z,7.55
2018-12-10T00:21:48.819Z,7.48
2018-12-10T00:25:13.525Z,7.67
2018-12-10T00:28:38.250Z,7.61
2018-12-10T00:32:03.089Z,7.61
2018-12-10T00:35:27.884Z,7.66
2018-12-10T00:38:52.621Z,7.52
2018-12-10T00:42:17.371Z,7.43
2018-12-10T00:45:42.156Z,7.48
2018-12-10T00:49:06.859Z,7.43
2018-12-10T00:52:31.656Z,7.68
2018-12-10T00:55:56.369Z,7.44
2018-12-10T00:59:21.064Z,7.36
2018-12-10T01:02:45.765Z,7.51
2018-12-10T01:06:10.520Z,7.51
2018-12-10T01:09:35.232Z,7.36
2018-12-10T01:12:59.887Z,7.55
2018-12-10T01:16:24.628Z,7.52
2018-12-10T01:19:49.353Z,7.29
2018-12-10T01:23:14.076Z,7.08
2018-12-10T01:26:38.794Z,7.19
2018-12-10T01:30:03.574Z,7.07
2018-12-10T01:33:28.276Z,7.19
2018-12-10T01:36:53.024Z,7.03
2018-12-10T01:40:17.774Z,7.03
2018-12-10T01:43:42.478Z,7.29
2018-12-10T01:47:07.181Z,7.07
2018-12-10T01:50:32.136Z,6.98
2018-12-10T01:53:56.867Z,6.89
2018-12-10T01:57:21.594Z,7.08
2018-12-10T02:00:46.387Z,7.10
2018-12-10T02:04:11.181Z,7.34
2018-12-10T02:07:35.930Z,7.23
2018-12-10T02:11:00.714Z,7.44
2018-12-10T02:14:25.452Z,7.33
2018-12-10T02:17:50.160Z,7.13
2018-12-10T02:21:14.886Z,7.22
2018-12-10T02:24:39.660Z,6.92
2018-12-10T02:28:04.390Z,7.44
2018-12-10T02:31:29.088Z,7.23
2018-12-10T02:34:53.823Z,7.40
2018-12-10T02:38:18.652Z,7.05
2018-12-10T02:41:43.492Z,7.26
2018-12-10T02:45:08.404Z,7.06
2018-12-10T02:48:33.170Z,7.05
2018-12-10T02:51:57.917Z,7.27
2018-12-10T02:55:22.658Z,7.01
2018-12-10T02:58:47.356Z,6.97
2018-12-10T03:02:12.229Z,7.18
2018-12-10T03:05:37.007Z,7.33
2018-12-10T03:09:01.751Z,7.26
2018-12-10T03:12:26.504Z,7.06
2018-12-10T03:15:51.173Z,7.16
2018-12-10T03:19:15.913Z,6.94
2018-12-10T03:22:40.610Z,7.05
2018-12-10T03:26:05.354Z,7.27
2018-12-10T03:29:30.050Z,7.00
2018-12-10T03:32:54.719Z,6.76
2018-12-10T03:36:19.464Z,6.89
2018-12-10T03:39:44.201Z,7.05
2018-12-10T03:43:08.909Z,6.76
2018-12-10T03:46:33.641Z,7.07
2018-12-10T03:49:58.352Z,6.81
2018-12-10T03:53:23.066Z,7.03
2018-12-10T03:56:47.796Z,6.82
2018-12-10T04:00:12.552Z,6.95
2018-12-10T04:03:37.292Z,6.71
2018-12-10T04:07:02.038Z,7.09
2018-12-10T04:10:26.752Z,7.07
2018-12-10T04:13:51.468Z,7.04
2018-12-10T04:17:16.193Z,7.15
2018-12-10T04:20:41.001Z,7.26
2018-12-10T04:24:05.730Z,7.12
2018-12-10T04:27:30.480Z,7.31
2018-12-10T04:30:55.267Z,7.20
2018-12-10T04:34:19.954Z,7.04
2018-12-10T04:37:44.686Z,6.95
2018-12-10T04:41:09.367Z,7.30
2018-12-10T04:44:34.131Z,7.18
2018-12-10T04:47:58.797Z,7.23
2018-12-10T04:51:23.494Z,7.58
2018-12-10T04:54:48.176Z,7.06
2018-12-10T04:58:12.887Z,6.92
2018-12-10T05:01:37.599Z,7.04
2018-12-10T05:05:02.331Z,6.94
2018-12-10T05:08:27.295Z,7.14
2018-12-10T05:11:52.024Z,7.11
2018-12-10T05:15:16.663Z,7.20
2018-12-10T05:18:41.489Z,7.03
2018-12-10T05:22:06.182Z,7.00
2018-12-10T05:25:30.862Z,6.89
2018-12-10T05:28:55.653Z,7.10
2018-12-10T05:32:20.407Z,7.21
2018-12-10T05:35:45.141Z,7.42
2018-12-10T05:39:09.894Z,7.27
2018-12-10T05:42:34.567Z,7.56
2018-12-10T05:45:59.270Z,7.13
2018-12-10T05:49:23.951Z,7.28
2018-12-10T05:52:50.517Z,7.20
2018-12-10T05:56:18.062Z,7.14
2018-12-10T05:59:42.844Z,6.96
2018-12-10T06:03:07.533Z,6.65
2018-12-10T06:06:32.258Z,6.71
2018-12-10T06:09:56.952Z,6.69
2018-12-10T06:13:21.586Z,6.62
2018-12-10T06:16:46.329Z,6.50
2018-12-10T06:20:12.129Z,6.59
2018-12-10T06:23:37.751Z,6.12
2018-12-10T06:27:02.584Z,6.15
2018-12-10T06:30:27.278Z,6.27
2018-12-10T06:33:51.947Z,6.36
2018-12-10T06:37:16.628Z,5.95
2018-12-10T06:40:41.285Z,6.08
2018-12-10T06:44:05.980Z,6.35
2018-12-10T06:47:30.796Z,6.24
2018-12-10T06:50:55.491Z,6.46
2018-12-10T06:54:20.062Z,6.51
2018-12-10T06:57:44.782Z,6.13
2018-12-10T07:01:09.498Z,6.30
2018-12-10T07:04:34.143Z,6.34
2018-12-10T07:07:58.827Z,6.35
2018-12-10T07:11:23.484Z,6.16
2018-12-10T07:14:48.257Z,6.52
2018-12-10T07:18:13.018Z,6.39
2018-12-10T07:21:37.683Z,6.40
2018-12-10T07:25:02.419Z,6.49
2018-12-10T07:28:27.134Z,6.32
2018-12-10T07:31:51.882Z,6.39
2018-12-10T07:35:16.592Z,6.21
2018-12-10T07:38:41.230Z,6.50
2018-12-10T07:42:05.993Z,6.24
2018-12-10T07:45:30.665Z,6.03
2018-12-10T07:48:55.383Z,6.29
2018-12-10T07:52:20.077Z,6.11
2018-12-10T07:55:44.751Z,6.40
2018-12-10T07:59:09.435Z,6.70
2018-12-10T08:02:34.145Z,6.73
2018-12-10T08:05:58.831Z,6.66
2018-12-10T08:09:23.527Z,6.93
2018-12-10T08:12:48.218Z,6.72
2018-12-10T08:16:12.995Z,6.77
2018-12-10T08:19:37.717Z,6.72
2018-12-10T08:23:02.491Z,6.84
2018-12-10T08:26:27.191Z,6.73
2018-12-10T08:29:51.887Z,6.85
2018-12-10T08:33:16.578Z,6.85
2018-12-10T08:36:41.314Z,7.11
2018-12-10T08:40:06.417Z,6.99
2018-12-10T08:43:31.149Z,6.99
2018-12-10T08:46:56.889Z,7.19
2018-12-10T08:50:21.536Z,7.41
2018-12-10T08:53:46.229Z,7.32
2018-12-10T08:57:10.984Z,7.47
2018-12-10T09:00:35.893Z,7.69
2018-12-10T09:04:00.631Z,7.61
2018-12-10T09:07:25.306Z,7.52
2018-12-10T09:10:50.047Z,7.52
2018-12-10T09:14:14.695Z,7.30
2018-12-10T09:17:39.417Z,7.66
2018-12-10T09:21:04.058Z,7.38
2018-12-10T09:24:28.699Z,7.39
2018-12-10T09:27:53.377Z,7.42
2018-12-10T09:31:18.058Z,7.75
2018-12-10T09:34:42.766Z,7.92
2018-12-10T09:38:07.444Z,7.52
2018-12-10T09:41:32.114Z,7.41
2018-12-10T09:44:56.801Z,7.63
2018-12-10T09:48:21.589Z,7.86
2018-12-10T09:51:46.262Z,7.51
2018-12-10T09:55:11.074Z,7.71
2018-12-10T09:58:35.784Z,7.67
2018-12-10T10:02:00.480Z,7.36
2018-12-10T10:05:25.172Z,7.51
2018-12-10T10:08:50.079Z,7.75
2018-12-10T10:12:14.860Z,7.55
2018-12-10T10:15:39.591Z,7.45
2018-12-10T10:19:05.243Z,7.76
2018-12-10T10:22:29.912Z,7.70
2018-12-10T10:25:54.923Z,7.77
2018-12-10T10:29:19.678Z,7.70
2018-12-10T10:32:44.400Z,7.63
2018-12-10T10:36:09.129Z,8.07
2018-12-10T10:39:33.876Z,8.20
2018-12-10T10:42:58.682Z,8.60
2018-12-10T10:46:23.783Z,8.53
2018-12-10T10:49:48.559Z,8.39
2018-12-10T10:53:13.301Z,8.05
2018-12-10T10:56:38.115Z,8.47
2018-12-10T11:00:02.840Z,8.23
2018-12-10T11:03:32.485Z,7.99
2018-12-10T11:07:03.088Z,8.17
2018-12-10T11:10:27.959Z,7.94
2018-12-10T11:13:52.701Z,7.70
2018-12-10T11:17:17.418Z,7.88
2018-12-10T11:20:42.164Z,8.15
2018-12-10T11:24:06.825Z,8.38
2018-12-10T11:27:31.546Z,8.30
2018-12-10T11:30:56.183Z,8.39
2018-12-10T11:34:20.894Z,8.33
2018-12-10T11:37:45.593Z,8.38
2018-12-10T11:41:10.385Z,8.37
2018-12-10T11:44:36.507Z,8.87
2018-12-10T11:48:01.238Z,8.87
2018-12-10T11:51:25.944Z,8.55
2018-12-10T11:54:50.632Z,8.68
2018-12-10T11:58:15.396Z,8.77
2018-12-10T12:01:40.068Z,8.70
2018-12-10T12:05:04.894Z,8.07
2018-12-10T12:08:29.606Z,8.04
2018-12-10T12:11:54.328Z,8.14
2018-12-10T12:15:19.249Z,8.16
2018-12-10T12:18:48.993Z,8.06
2018-12-10T12:22:13.778Z,8.02
2018-12-10T12:25:38.450Z,8.13
2018-12-10T12:29:03.123Z,8.05
2018-12-10T12:32:27.801Z,7.93
2018-12-10T12:35:52.652Z,8.15
2018-12-10T12:39:17.334Z,7.86
2018-12-10T12:42:42.012Z,7.83
2018-12-10T12:46:06.698Z,8.21
2018-12-10T12:49:31.398Z,8.49
2018-12-10T12:52:56.134Z,8.38
2018-12-10T12:56:20.824Z,8.64
2018-12-10T12:59:45.491Z,9.10
2018-12-10T13:03:10.238Z,9.27
2018-12-10T13:06:35.012Z,9.41
2018-12-10T13:09:59.674Z,9.55
2018-12-10T13:13:24.468Z,9.58
2018-12-10T13:16:49.676Z,9.78
2018-12-10T13:20:14.743Z,9.35
2018-12-10T13:23:39.453Z,9.29
2018-12-10T13:27:04.178Z,9.10
2018-12-10T13:30:28.958Z,8.69
2018-12-10T13:33:53.819Z,8.91
2018-12-10T13:37:18.425Z,8.63
2018-12-10T13:40:43.176Z,8.88
2018-12-10T13:44:07.899Z,8.56
2018-12-10T13:47:32.601Z,8.60
2018-12-10T13:50:57.294Z,8.66
2018-12-10T13:54:22.022Z,9.02
2018-12-10T13:57:46.754Z,9.46
2018-12-10T14:01:11.457Z,9.88
2018-12-10T14:08:14.706Z,9.31
2018-12-10T14:11:39.467Z,9.32
2018-12-10T14:15:05.212Z,9.48
2018-12-10T14:18:29.973Z,9.24
2018-12-10T14:21:54.789Z,9.54
2018-12-10T14:25:26.987Z,9.73
2018-12-10T14:28:51.666Z,9.43
2018-12-10T14:32:16.349Z,9.35
2018-12-10T14:35:41.034Z,8.76
2018-12-10T14:39:10.536Z,9.14
2018-12-10T14:42:51.001Z,8.88
2018-12-10T14:46:15.708Z,8.36
2018-12-10T14:49:40.720Z,8.38
2018-12-10T14:53:08.209Z,8.53
2018-12-10T14:56:32.910Z,8.37
2018-12-10T15:00:08.266Z,8.29
2018-12-10T15:03:32.967Z,8.34
2018-12-10T15:06:57.623Z,8.16
2018-12-10T15:10:23.391Z,8.32
2018-12-10T15:13:48.294Z,7.97
2018-12-10T15:17:13.137Z,7.92
2018-12-10T15:20:38.008Z,7.90
2018-12-10T15:24:02.719Z,7.83
2018-12-10T15:27:27.393Z,7.95
2018-12-10T15:30:52.178Z,7.99
2018-12-10T15:34:16.864Z,7.82
2018-12-10T15:37:42.464Z,7.63
2018-12-10T15:41:07.326Z,7.84
2018-12-10T15:44:32.565Z,8.02
2018-12-10T15:47:57.301Z,8.37
2018-12-10T15:51:22.039Z,8.20
2018-12-10T15:54:47.061Z,7.86
2018-12-10T15:58:11.826Z,7.75
2018-12-10T16:01:36.448Z,7.77
2018-12-10T16:05:01.163Z,7.54
2018-12-10T16:08:25.930Z,7.70
2018-12-10T16:11:50.635Z,7.51
2018-12-10T16:15:15.445Z,7.33
2018-12-10T16:18:40.124Z,7.47
2018-12-10T16:22:04.895Z,7.45
2018-12-10T16:25:29.658Z,7.49
2018-12-10T16:28:54.344Z,7.38
2018-12-10T16:32:19.096Z,7.48
2018-12-10T16:35:44.171Z,7.40
2018-12-10T16:39:10.795Z,7.63
2018-12-10T16:42:35.466Z,7.48
2018-12-10T16:46:00.162Z,7.40
2018-12-10T16:49:24.871Z,7.64
2018-12-10T16:52:49.524Z,7.27
2018-12-10T16:56:14.441Z,7.35
2018-12-10T16:59:39.250Z,7.43
2018-12-10T17:03:04.267Z,7.36
2018-12-10T17:06:28.999Z,7.34
2018-12-10T17:09:53.705Z,6.98
2018-12-10T17:13:18.383Z,7.11
2018-12-10T17:16:43.141Z,7.04
2018-12-10T17:20:08.537Z,7.11
2018-12-10T17:23:33.275Z,6.82
2018-12-10T17:26:57.935Z,6.90
2018-12-10T17:30:22.598Z,7.00
2018-12-10T17:33:47.356Z,7.02
2018-12-10T17:37:12.045Z,7.21
2018-12-10T17:40:36.763Z,7.07
2018-12-10T17:44:01.807Z,6.75
2018-12-10T17:47:26.532Z,6.89
2018-12-10T17:50:52.252Z,6.69
2018-12-10T17:54:16.913Z,6.94
2018-12-10T17:57:41.613Z,6.64
2018-12-10T18:01:06.338Z,6.88
2018-12-10T18:04:31.106Z,6.56
2018-12-10T18:07:55.790Z,6.97
2018-12-10T18:11:20.462Z,6.88
2018-12-10T18:14:45.157Z,6.74
2018-12-10T18:18:09.815Z,6.59
2018-12-10T18:21:34.459Z,6.35
2018-12-10T18:24:59.096Z,6.57
2018-12-10T18:28:23.797Z,6.77
2018-12-10T18:31:48.584Z,6.45
2018-12-10T18:35:13.443Z,6.66
2018-12-10T18:38:38.112Z,6.52
2018-12-10T18:42:02.801Z,6.36
2018-12-10T18:45:28.182Z,6.41
2018-12-10T18:48:53.088Z,6.72
2018-12-10T18:52:17.770Z,6.54
2018-12-10T18:55:42.554Z,6.54
2018-12-10T18:59:07.273Z,6.26
2018-12-10T19:02:32.017Z,6.63
2018-12-10T19:05:56.871Z,6.48
2018-12-10T19:09:21.498Z,6.70
2018-12-10T19:12:46.173Z,6.31
2018-12-10T19:16:11.117Z,6.63
2018-12-10T19:19:35.807Z,6.72
2018-12-10T19:23:00.818Z,6.61
2018-12-10T19:26:25.582Z,6.47
2018-12-10T19:29:50.396Z,6.57
2018-12-10T19:33:15.215Z,6.74
2018-12-10T19:36:39.953Z,6.60
2018-12-10T19:40:05.116Z,6.63
2018-12-10T19:43:29.872Z,7.02
2018-12-10T19:46:55.739Z,7.03
2018-12-10T19:50:21.332Z,7.05
2018-12-10T19:53:46.192Z,7.03
2018-12-10T19:57:10.922Z,7.03
2018-12-10T20:00:35.861Z,6.64
2018-12-10T20:04:00.544Z,7.06
2018-12-10T20:10:58.962Z,6.99
2018-12-10T20:14:23.704Z,7.13
2018-12-10T20:17:49.532Z,7.22
2018-12-10T20:21:14.255Z,7.00
2018-12-10T20:24:38.995Z,6.75
2018-12-10T20:28:03.789Z,7.02
2018-12-10T20:31:28.439Z,6.72
2018-12-10T20:34:53.213Z,6.84
2018-12-10T20:38:20.536Z,6.44
2018-12-10T20:41:46.278Z,6.61
2018-12-10T20:45:11.651Z,6.78
2018-12-10T20:48:36.370Z,6.63
2018-12-10T20:52:01.014Z,6.68
2018-12-10T20:55:29.388Z,6.72
2018-12-10T20:58:56.555Z,6.59
2018-12-10T21:02:21.234Z,6.54
2018-12-10T21:05:51.852Z,6.54
2018-12-10T21:09:17.128Z,6.71
2018-12-10T21:12:43.801Z,6.56
2018-12-10T21:16:10.521Z,6.35
2018-12-10T21:19:35.366Z,6.34
2018-12-10T21:23:00.113Z,6.72
2018-12-10T21:26:25.076Z,6.39
2018-12-10T21:29:49.962Z,6.42
2018-12-10T21:33:14.769Z,6.46
2018-12-10T21:36:40.383Z,6.59
2018-12-10T21:40:06.283Z,6.62
2018-12-10T21:43:31.031Z,6.45
2018-12-10T21:46:55.841Z,6.65
2018-12-10T21:50:22.164Z,6.39
2018-12-10T21:53:48.045Z,6.46
2018-12-10T21:57:13.007Z,6.49
2018-12-10T22:00:38.072Z,6.41
2018-12-10T22:04:03.304Z,6.53
2018-12-10T22:07:28.159Z,6.54
2018-12-10T22:10:52.952Z,6.44
2018-12-10T22:14:20.714Z,6.24
2018-12-10T22:17:46.364Z,6.18
2018-12-10T22:21:12.245Z,6.16
2018-12-10T22:24:38.188Z,5.57
2018-12-10T22:28:02.944Z,5.75
2018-12-10T22:31:27.705Z,5.91
2018-12-10T22:34:52.960Z,5.95
2018-12-10T22:38:17.653Z,5.71
2018-12-10T22:41:42.402Z,5.84
2018-12-10T22:45:07.686Z,5.64
2018-12-10T22:48:32.468Z,5.90
2018-12-10T22:51:57.205Z,6.14
2018-12-10T22:55:21.968Z,5.78
2018-12-10T22:58:46.692Z,5.91
2018-12-10T23:02:11.440Z,5.59
2018-12-10T23:05:36.679Z,5.79
2018-12-10T23:09:03.862Z,6.01
2018-12-10T23:12:28.999Z,6.13
2018-12-10T23:15:53.859Z,5.75
2018-12-10T23:19:18.694Z,5.97
2018-12-10T23:22:43.363Z,5.96
2018-12-10T23:26:08.181Z,5.72
2018-12-10T23:29:36.016Z,5.71
2018-12-10T23:33:00.771Z,5.97
2018-12-10T23:36:25.468Z,5.90
2018-12-10T23:39:50.161Z,5.63
2018-12-10T23:43:20.164Z,5.93
2018-12-10T23:46:45.128Z,6.01
2018-12-10T23:50:09.856Z,5.94
2018-12-10T23:53:34.579Z,5.60
2018-12-10T23:56:59.286Z,5.70
